Time;durP1;ratioP1;P1;durP2;ratioP2;P2;SDS_P1;SDS_P2;PMS_P1;PMS_P2;Temp;Humidity;BMP_temperature;BMP_pressure;BME280_temperature;BME280_humidity;BME280_pressure;Samples;Min_cycle;Max_cycle;Signal;HPM_P1;HPM_P2
2021/06/16 00:00:26;;;;;;;5.13;3.35;;;20.80;86.10;;;;;;5115287;28;20049;-66
2021/06/16 00:02:52;;;;;;;4.43;3.50;;;20.70;86.10;;;;;;5111156;28;20032;-66
2021/06/16 00:05:27;;;;;;;2.97;2.70;;;20.70;86.10;;;;;;5099207;28;20371;-66
2021/06/16 00:07:53;;;;;;;3.35;2.55;;;20.70;85.50;;;;;;5113513;28;20019;-66
2021/06/16 00:10:24;;;;;;;2.65;2.42;;;20.70;84.90;;;;;;5101575;28;20114;-66
2021/06/16 00:12:49;;;;;;;2.25;2.05;;;20.70;84.60;;;;;;5093333;28;20498;-66
2021/06/16 00:15:24;;;;;;;2.70;2.35;;;20.70;84.40;;;;;;5094305;28;20029;-66
2021/06/16 00:17:50;;;;;;;2.50;2.30;;;20.70;84.30;;;;;;5094251;28;20074;-66
2021/06/16 00:20:16;;;;;;;3.65;2.30;;;20.60;84.30;;;;;;5097831;28;20434;-66
2021/06/16 00:22:42;;;;;;;2.85;2.50;;;20.60;84.50;;;;;;5094302;28;20119;-66
2021/06/16 00:25:09;;;;;;;3.03;2.30;;;20.60;84.90;;;;;;5100798;28;20015;-66
2021/06/16 00:27:35;;;;;;;2.50;2.30;;;20.60;85.10;;;;;;5112995;28;20031;-66
2021/06/16 00:30:01;;;;;;;2.72;2.45;;;20.60;84.80;;;;;;5114129;28;20027;-66
2021/06/16 00:32:26;;;;;;;3.25;2.67;;;20.60;84.60;;;;;;5114461;28;20028;-66
2021/06/16 00:34:52;;;;;;;5.25;3.10;;;20.50;84.90;;;;;;5114248;28;20028;-66
2021/06/16 00:37:18;;;;;;;4.93;2.80;;;20.50;85.10;;;;;;5095757;28;20383;-66
2021/06/16 00:39:43;;;;;;;3.30;2.83;;;20.50;85.30;;;;;;5110621;28;20027;-66
2021/06/16 00:42:09;;;;;;;4.43;3.05;;;20.50;85.60;;;;;;5114258;28;20015;-66
2021/06/16 00:44:35;;;;;;;6.47;3.20;;;20.40;85.60;;;;;;5114307;28;20020;-66
2021/06/16 00:47:01;;;;;;;4.72;3.22;;;20.50;85.90;;;;;;5114236;28;20024;-66
2021/06/16 00:49:28;;;;;;;4.82;3.33;;;20.40;86.20;;;;;;5113243;27;20028;-66
2021/06/16 00:51:54;;;;;;;4.85;3.13;;;20.40;86.60;;;;;;5113674;28;20031;-66
2021/06/16 00:54:19;;;;;;;4.13;3.33;;;20.40;86.70;;;;;;5105848;28;20450;-66
2021/06/16 00:56:45;;;;;;;3.78;2.95;;;20.40;86.90;;;;;;5093721;28;20025;-66
2021/06/16 00:59:11;;;;;;;4.70;3.38;;;20.40;87.00;;;;;;5108412;28;20032;-66
2021/06/16 01:01:46;;;;;;;3.40;3.00;;;20.40;87.30;;;;;;5114000;28;20022;-66
2021/06/16 01:04:21;;;;;;;3.80;3.08;;;20.40;87.30;;;;;;5111509;28;20154;-66
2021/06/16 01:07:06;;;;;;;3.50;3.10;;;20.30;87.50;;;;;;5112528;28;20053;-66
2021/06/16 01:09:36;;;;;;;3.13;2.83;;;20.30;87.60;;;;;;5113186;28;20387;-66
2021/06/16 01:12:11;;;;;;;3.28;3.00;;;20.30;88.10;;;;;;5112032;28;20028;-66
2021/06/16 01:14:53;;;;;;;3.28;2.88;;;20.20;88.10;;;;;;5099576;28;20506;-66
2021/06/16 01:17:34;;;;;;;3.10;2.80;;;20.20;88.40;;;;;;5113834;28;20024;-66
2021/06/16 01:19:59;;;;;;;;;;;20.20;88.80;;;;;;5113213;28;20032;-66
2021/06/16 01:22:51;;;;;;;3.63;3.10;;;20.10;88.70;;;;;;5113636;28;19907;-66
2021/06/16 01:25:21;;;;;;;3.55;2.90;;;20.00;88.70;;;;;;5102629;28;20115;-66
2021/06/16 01:27:48;;;;;;;3.00;2.75;;;20.00;89.10;;;;;;5112352;28;20063;-66
2021/06/16 01:30:14;;;;;;;3.30;3.00;;;20.00;89.30;;;;;;5101506;28;20024;-66
2021/06/16 01:32:40;;;;;;;3.53;3.15;;;20.00;89.50;;;;;;5093270;28;20024;-66
2021/06/16 01:35:06;;;;;;;3.65;3.25;;;19.90;89.70;;;;;;5095214;28;20081;-66
2021/06/16 01:37:32;;;;;;;3.90;2.90;;;20.00;89.70;;;;;;5113611;28;20023;-66
2021/06/16 01:39:59;;;;;;;3.22;2.80;;;19.90;89.80;;;;;;5112450;28;20038;-66
2021/06/16 01:42:27;;;;;;;4.30;3.35;;;19.90;89.90;;;;;;5108070;28;20532;-66
2021/06/16 01:44:53;;;;;;;5.93;3.30;;;19.90;90.00;;;;;;5093773;28;20024;-66
2021/06/16 01:47:23;;;;;;;3.53;2.80;;;19.80;89.90;;;;;;5101148;28;20486;-66
2021/06/16 01:49:53;;;;;;;3.13;2.83;;;19.80;89.80;;;;;;5112300;28;20020;-67
2021/06/16 01:52:21;;;;;;;3.43;3.13;;;19.80;90.00;;;;;;5113378;28;20032;-66
2021/06/16 01:54:47;;;;;;;3.83;3.20;;;19.80;90.20;;;;;;5113621;28;20080;-66
2021/06/16 01:57:15;;;;;;;3.90;3.50;;;19.80;90.40;;;;;;5112124;28;20046;-66
2021/06/16 01:59:42;;;;;;;4.60;3.38;;;19.80;90.40;;;;;;5106631;28;20067;-66
2021/06/16 02:02:09;;;;;;;3.50;3.03;;;19.80;90.40;;;;;;5098873;28;20031;-66
2021/06/16 02:04:35;;;;;;;4.22;3.33;;;19.80;90.50;;;;;;5112092;28;20530;-66
2021/06/16 02:07:08;;;;;;;3.33;3.00;;;19.80;90.50;;;;;;5111851;28;20022;-66
2021/06/16 02:09:35;;;;;;;3.75;3.28;;;19.80;90.40;;;;;;5111306;28;20020;-66
2021/06/16 02:12:05;;;;;;;3.30;3.00;;;19.70;90.40;;;;;;5113377;28;20103;-66
2021/06/16 02:14:31;;;;;;;3.60;3.30;;;19.70;90.40;;;;;;5113110;28;20495;-66
2021/06/16 02:17:02;;;;;;;3.83;3.40;;;19.70;90.40;;;;;;5113037;28;20027;-66
2021/06/16 02:19:29;;;;;;;;;;;19.70;90.30;;;;;;5108398;28;20040;-66
2021/06/16 02:21:56;;;;;;;3.67;3.28;;;19.60;90.50;;;;;;5112837;28;19912;-66
2021/06/16 02:24:22;;;;;;;3.35;3.05;;;19.60;90.40;;;;;;5113032;28;20062;-66
2021/06/16 02:26:48;;;;;;;10.23;3.40;;;19.70;90.50;;;;;;5107788;28;20047;-66
2021/06/16 02:29:14;;;;;;;3.53;3.22;;;19.70;90.50;;;;;;5095898;28;20042;-66
2021/06/16 02:31:42;;;;;;;3.30;3.00;;;19.80;90.50;;;;;;5111872;28;20023;-66
2021/06/16 02:34:08;;;;;;;3.30;3.00;;;19.80;90.40;;;;;;5112904;28;20088;-66
2021/06/16 02:36:38;;;;;;;3.47;3.15;;;19.80;90.40;;;;;;5111351;28;20032;-66
2021/06/16 02:39:12;;;;;;;3.08;2.78;;;19.80;90.50;;;;;;5104051;28;20122;-66
2021/06/16 02:41:38;;;;;;;3.40;3.10;;;19.90;90.40;;;;;;5106070;28;20058;-66
2021/06/16 02:44:05;;;;;;;3.17;2.88;;;19.90;90.40;;;;;;5092390;28;20059;-66
2021/06/16 02:46:34;;;;;;;3.50;3.10;;;19.90;90.30;;;;;;5092600;28;20380;-66
2021/06/16 02:49:01;;;;;;;3.60;3.05;;;20.00;90.40;;;;;;5092950;28;20388;-66
2021/06/16 02:51:28;;;;;;;3.90;3.50;;;20.00;90.30;;;;;;5110520;28;20024;-66
2021/06/16 02:53:55;;;;;;;3.28;2.97;;;20.10;90.30;;;;;;5098418;28;20032;-66
2021/06/16 02:56:22;;;;;;;3.67;3.10;;;20.10;90.20;;;;;;5094079;28;20036;-66
2021/06/16 02:58:50;;;;;;;3.88;3.45;;;20.20;90.10;;;;;;5094747;28;20096;-66
2021/06/16 03:01:18;;;;;;;3.60;3.30;;;20.20;90.00;;;;;;5114661;28;20107;-66
2021/06/16 03:03:48;;;;;;;3.60;3.20;;;20.20;90.00;;;;;;5115353;28;20023;-67
2021/06/16 03:06:18;;;;;;;4.63;3.20;;;20.30;89.90;;;;;;5114295;28;20086;-66
2021/06/16 03:08:45;;;;;;;2.80;2.60;;;20.40;89.70;;;;;;5114209;28;20035;-66
2021/06/16 03:11:12;;;;;;;3.30;3.00;;;20.40;89.70;;;;;;5100572;28;20026;-66
2021/06/16 03:13:38;;;;;;;3.78;2.88;;;20.40;90.00;;;;;;5095631;28;20384;-66
2021/06/16 03:16:04;;;;;;;2.85;2.60;;;20.50;89.20;;;;;;5098378;28;20490;-66
2021/06/16 03:18:30;;;;;;;3.13;2.70;;;20.60;89.30;;;;;;5115985;28;20042;-66
2021/06/16 03:20:58;;;;;;;3.05;2.70;;;20.70;89.10;;;;;;5113766;28;20397;-66
2021/06/16 03:23:26;;;;;;;3.10;2.80;;;20.80;88.80;;;;;;5115966;28;20047;-66
2021/06/16 03:25:54;;;;;;;3.40;3.03;;;20.90;88.70;;;;;;5114134;28;20084;-66
2021/06/16 03:28:24;;;;;;;2.70;2.50;;;21.00;88.50;;;;;;5115336;28;20077;-66
2021/06/16 03:30:53;;;;;;;2.80;2.60;;;21.10;88.10;;;;;;5114125;28;20028;-66
2021/06/16 03:33:20;;;;;;;2.80;2.30;;;21.20;88.40;;;;;;5116010;28;20088;-66
2021/06/16 03:35:46;;;;;;;2.83;2.63;;;21.50;89.20;;;;;;5115598;28;20019;-66
2021/06/16 03:38:12;;;;;;;2.60;2.40;;;21.80;89.50;;;;;;5115552;28;20111;-66
2021/06/16 03:40:38;;;;;;;3.42;2.60;;;22.20;88.80;;;;;;5114554;28;20028;-66
2021/06/16 03:43:05;;;;;;;2.80;2.50;;;22.70;87.60;;;;;;5109369;28;20043;-66
2021/06/16 03:45:31;;;;;;;2.63;2.38;;;23.20;85.80;;;;;;5112038;28;20024;-66
2021/06/16 03:48:01;;;;;;;2.63;2.40;;;23.90;83.80;;;;;;5114569;28;20077;-66
2021/06/16 03:50:28;;;;;;;2.20;2.10;;;24.60;81.50;;;;;;5114700;28;20032;-66
2021/06/16 03:52:56;;;;;;;2.13;2.00;;;25.20;79.10;;;;;;5115395;28;20110;-66
2021/06/16 03:55:22;;;;;;;2.33;2.13;;;25.80;76.60;;;;;;5115400;28;20023;-66
2021/06/16 03:57:49;;;;;;;2.80;2.60;;;26.30;74.10;;;;;;5115142;28;20161;-66
2021/06/16 04:00:16;;;;;;;3.08;2.75;;;26.50;71.90;;;;;;5114016;27;20073;-66
2021/06/16 04:02:42;;;;;;;2.45;2.25;;;26.40;70.20;;;;;;5095713;28;20111;-66
2021/06/16 04:05:09;;;;;;;3.05;2.70;;;26.10;69.60;;;;;;5094311;28;20024;-66
2021/06/16 04:07:36;;;;;;;3.15;2.88;;;25.80;69.50;;;;;;5109427;28;20035;-66
2021/06/16 04:10:06;;;;;;;2.92;2.53;;;25.40;69.90;;;;;;5105581;28;20099;-66
2021/06/16 04:12:32;;;;;;;3.85;2.78;;;25.00;70.10;;;;;;5100197;28;20031;-67
2021/06/16 04:14:57;;;;;;;3.10;2.80;;;24.80;70.70;;;;;;5111817;28;20081;-66
2021/06/16 04:17:24;;;;;;;2.65;2.45;;;24.50;71.20;;;;;;5100192;28;20036;-66
2021/06/16 04:19:51;;;;;;;3.72;2.85;;;24.30;71.80;;;;;;5112642;28;20036;-66
2021/06/16 04:22:17;;;;;;;4.43;2.50;;;24.10;72.40;;;;;;5115041;28;20506;-66
2021/06/16 04:24:43;;;;;;;3.55;2.72;;;23.90;72.70;;;;;;5113041;28;20088;-66
2021/06/16 04:27:09;;;;;;;2.95;2.65;;;23.80;73.20;;;;;;5109782;28;20073;-66
2021/06/16 04:29:36;;;;;;;3.10;2.80;;;23.60;73.30;;;;;;5104011;28;20024;-66
2021/06/16 04:32:02;;;;;;;3.05;2.80;;;23.50;73.40;;;;;;5114788;27;20088;-66
2021/06/16 04:34:29;;;;;;;2.50;2.40;;;23.40;73.80;;;;;;5112637;28;20024;-66
2021/06/16 04:36:55;;;;;;;3.05;2.75;;;23.30;74.40;;;;;;5113393;28;20028;-66
2021/06/16 04:39:20;;;;;;;3.13;2.45;;;23.40;74.80;;;;;;5110357;28;20084;-66
2021/06/16 04:41:46;;;;;;;2.72;2.53;;;23.70;75.10;;;;;;5100718;28;20029;-66
2021/06/16 04:44:12;;;;;;;3.00;2.70;;;24.10;74.20;;;;;;5109545;28;20455;-66
2021/06/16 04:46:38;;;;;;;3.20;2.40;;;24.40;72.80;;;;;;5110913;28;20027;-66
2021/06/16 04:49:05;;;;;;;3.83;2.90;;;24.50;72.10;;;;;;5104632;28;20401;-66
2021/06/16 04:51:30;;;;;;;2.60;2.40;;;24.40;71.70;;;;;;5098624;28;20026;-59
2021/06/16 04:53:56;;;;;;;3.13;2.72;;;24.30;71.40;;;;;;5105181;28;20016;-57
2021/06/16 04:56:22;;;;;;;3.05;2.75;;;24.10;71.40;;;;;;5105688;28;20040;-57
2021/06/16 04:58:48;;;;;;;3.13;2.85;;;23.90;71.80;;;;;;5096295;28;20044;-56
2021/06/16 05:01:13;;;;;;;2.97;2.70;;;23.80;72.20;;;;;;5104355;28;20027;-57
2021/06/16 05:03:39;;;;;;;3.17;2.88;;;23.60;73.20;;;;;;5101096;28;20074;-57
2021/06/16 05:06:05;;;;;;;3.47;2.88;;;23.40;73.00;;;;;;5108632;28;20106;-57
2021/06/16 05:08:31;;;;;;;3.22;2.92;;;23.30;73.50;;;;;;5104883;28;20418;-58
2021/06/16 05:10:56;;;;;;;3.75;2.85;;;23.10;73.90;;;;;;5105603;28;20032;-57
2021/06/16 05:13:27;;;;;;;3.47;3.17;;;23.00;74.50;;;;;;5103667;28;20039;-58
2021/06/16 05:15:54;;;;;;;2.92;2.67;;;22.90;74.80;;;;;;5104277;28;20027;-58
2021/06/16 05:18:20;;;;;;;3.17;2.88;;;22.70;74.90;;;;;;5104085;28;20063;-58
2021/06/16 05:20:46;;;;;;;3.97;3.55;;;22.60;75.40;;;;;;5104552;28;20070;-57
2021/06/16 05:23:12;;;;;;;4.88;3.97;;;22.50;75.80;;;;;;5095239;28;20056;-58
2021/06/16 05:25:41;;;;;;;3.42;3.15;;;22.40;76.40;;;;;;5102021;28;20024;-58
2021/06/16 05:28:07;;;;;;;3.40;3.08;;;22.30;76.50;;;;;;5094314;28;20036;-59
2021/06/16 05:30:32;;;;;;;3.25;2.70;;;22.30;76.90;;;;;;5101671;28;20031;-58
2021/06/16 05:32:58;;;;;;;3.55;3.25;;;22.20;77.50;;;;;;5105711;28;20046;-58
2021/06/16 05:35:24;;;;;;;3.40;3.10;;;22.10;77.60;;;;;;5101849;28;20036;-57
2021/06/16 05:37:50;;;;;;;4.25;3.45;;;22.10;78.10;;;;;;5100850;28;20028;-58
2021/06/16 05:40:16;;;;;;;4.78;3.45;;;22.10;78.30;;;;;;5100789;28;20133;-59
2021/06/16 05:42:42;;;;;;;3.92;3.08;;;22.10;78.70;;;;;;5096282;28;20367;-58
2021/06/16 05:45:09;;;;;;;3.92;3.33;;;22.20;79.30;;;;;;5095989;28;20023;-59
2021/06/16 05:47:35;;;;;;;4.57;3.20;;;22.20;78.90;;;;;;5097428;28;20099;-59
2021/06/16 05:50:01;;;;;;;4.57;3.40;;;22.20;79.10;;;;;;5094003;28;20035;-58
2021/06/16 05:52:26;;;;;;;3.63;3.33;;;22.30;79.60;;;;;;5097011;28;20035;-60
2021/06/16 05:54:52;;;;;;;3.88;3.58;;;22.30;79.50;;;;;;5096102;28;20656;-60
2021/06/16 05:57:18;;;;;;;3.80;3.50;;;22.40;79.60;;;;;;5090447;28;20357;-58
2021/06/16 05:59:43;;;;;;;3.70;3.33;;;22.40;79.70;;;;;;5092742;28;20039;-60
2021/06/16 06:02:09;;;;;;;3.90;3.50;;;22.40;79.90;;;;;;5090655;28;20184;-61
2021/06/16 06:04:35;;;;;;;3.63;3.33;;;22.40;80.10;;;;;;5091543;28;20076;-60
2021/06/16 06:07:05;;;;;;;3.85;3.55;;;22.40;80.10;;;;;;5094922;28;20117;-60
2021/06/16 06:09:31;;;;;;;4.95;4.00;;;22.40;80.10;;;;;;5092859;28;20142;-61
2021/06/16 06:11:56;;;;;;;3.90;3.40;;;22.50;80.60;;;;;;5092575;28;20457;-60
2021/06/16 06:14:22;;;;;;;4.68;3.75;;;22.60;80.20;;;;;;5097622;28;20043;-61
2021/06/16 06:16:48;;;;;;;3.92;3.55;;;22.60;79.40;;;;;;5086985;28;20032;-60
2021/06/16 06:19:13;;;;;;;4.13;3.53;;;22.70;79.60;;;;;;5083380;28;20403;-61
2021/06/16 06:21:39;;;;;;;4.53;3.97;;;22.80;79.60;;;;;;5081035;28;20032;-60
2021/06/16 06:24:05;;;;;;;4.63;3.95;;;22.80;79.20;;;;;;5090248;28;20031;-61
2021/06/16 06:26:34;;;;;;;5.03;3.90;;;22.90;79.00;;;;;;5088013;28;20024;-60
2021/06/16 06:29:00;;;;;;;4.43;4.03;;;22.90;79.20;;;;;;5092605;28;20030;-60
2021/06/16 06:31:27;;;;;;;4.75;4.22;;;23.00;79.00;;;;;;5084098;28;20061;-60
2021/06/16 06:33:53;;;;;;;4.30;3.90;;;23.00;78.60;;;;;;5086906;28;20035;-60
2021/06/16 06:36:19;;;;;;;5.75;3.97;;;22.90;78.30;;;;;;5097134;28;20027;-59
2021/06/16 06:38:45;;;;;;;4.13;3.72;;;22.90;78.20;;;;;;5099488;28;20024;-60
2021/06/16 06:41:12;;;;;;;4.82;4.28;;;22.90;78.50;;;;;;5096782;28;20034;-58
2021/06/16 06:43:38;;;;;;;4.47;4.07;;;22.90;78.60;;;;;;5092550;27;20532;-60
2021/06/16 06:46:04;;;;;;;4.70;4.20;;;22.90;78.60;;;;;;5092665;28;20092;-58
2021/06/16 06:48:30;;;;;;;3.80;3.50;;;22.90;78.60;;;;;;5094490;28;21311;-59
2021/06/16 06:50:56;;;;;;;4.32;3.92;;;22.90;79.10;;;;;;5098248;28;20031;-59
2021/06/16 06:53:22;;;;;;;4.57;4.13;;;22.90;79.20;;;;;;5085608;28;20027;-60
2021/06/16 06:55:48;;;;;;;4.72;4.25;;;22.90;79.20;;;;;;5086423;27;20055;-61
2021/06/16 06:58:14;;;;;;;4.88;4.28;;;23.00;79.50;;;;;;5093366;28;20040;-62
2021/06/16 07:00:40;;;;;;;4.57;4.13;;;23.00;80.20;;;;;;5094726;28;20043;-61
2021/06/16 07:03:06;;;;;;;5.13;4.63;;;23.10;80.00;;;;;;5086722;28;20032;-59
2021/06/16 07:05:31;;;;;;;4.28;3.88;;;23.10;80.20;;;;;;5086624;28;20134;-59
2021/06/16 07:07:57;;;;;;;5.45;4.18;;;23.20;80.20;;;;;;5094608;28;21700;-60
2021/06/16 07:10:23;;;;;;;4.32;3.92;;;23.30;80.20;;;;;;5091038;28;20036;-59
2021/06/16 07:12:49;;;;;;;4.90;4.10;;;23.40;80.20;;;;;;5087026;28;20023;-60
2021/06/16 07:15:15;;;;;;;4.43;4.03;;;23.40;79.80;;;;;;5090898;28;20039;-60
2021/06/16 07:17:42;;;;;;;4.93;4.43;;;23.50;79.90;;;;;;5096509;28;20070;-60
2021/06/16 07:20:09;;;;;;;5.13;4.63;;;23.60;79.50;;;;;;5094382;28;20844;-59
2021/06/16 07:22:34;;;;;;;5.15;4.38;;;23.60;79.70;;;;;;5093207;28;20100;-59
2021/06/16 07:25:00;;;;;;;4.63;4.22;;;23.70;80.00;;;;;;5089734;28;20021;-60
2021/06/16 07:27:26;;;;;;;5.07;4.47;;;23.80;80.10;;;;;;5091706;28;20790;-58
2021/06/16 07:29:52;;;;;;;4.72;4.22;;;23.80;79.70;;;;;;5092960;28;20997;-59
2021/06/16 07:32:18;;;;;;;4.95;4.45;;;23.90;79.50;;;;;;5089115;28;20039;-58
2021/06/16 07:34:44;;;;;;;4.35;3.95;;;23.90;79.60;;;;;;5096449;28;20035;-59
2021/06/16 07:37:10;;;;;;;5.47;4.53;;;23.90;79.50;;;;;;5097720;28;20104;-59
2021/06/16 07:39:36;;;;;;;6.07;5.30;;;23.90;79.00;;;;;;5090961;28;20744;-58
2021/06/16 07:42:02;;;;;;;5.55;4.72;;;23.90;79.20;;;;;;5094091;28;20084;-60
2021/06/16 07:44:28;;;;;;;5.05;4.20;;;23.90;79.20;;;;;;5093021;28;20024;-62
2021/06/16 07:46:54;;;;;;;4.55;4.15;;;23.90;79.40;;;;;;5091726;28;20042;-60
2021/06/16 07:49:19;;;;;;;5.18;4.68;;;23.90;79.20;;;;;;5092440;28;20055;-61
2021/06/16 07:51:45;;;;;;;5.93;5.03;;;23.90;78.80;;;;;;5097117;28;20035;-58
2021/06/16 07:54:11;;;;;;;5.15;4.65;;;23.90;78.90;;;;;;5094971;28;20578;-58
2021/06/16 07:56:41;;;;;;;5.60;5.10;;;23.90;79.10;;;;;;5091816;28;20177;-59
2021/06/16 07:59:07;;;;;;;6.68;5.00;;;23.90;79.50;;;;;;5095836;28;20032;-60
2021/06/16 08:01:34;;;;;;;5.60;4.93;;;23.90;79.20;;;;;;5095272;28;20027;-60
2021/06/16 08:03:59;;;;;;;6.35;5.53;;;23.90;78.70;;;;;;5096407;28;20470;-57
2021/06/16 08:06:25;;;;;;;4.78;4.15;;;23.90;78.70;;;;;;5093729;28;20119;-59
2021/06/16 08:08:51;;;;;;;5.32;4.82;;;23.90;78.80;;;;;;5090909;28;20031;-60
2021/06/16 08:11:19;;;;;;;7.25;5.30;;;23.80;78.90;;;;;;5080377;28;20058;-60
2021/06/16 08:13:45;;;;;;;5.15;4.65;;;23.70;79.10;;;;;;5085900;28;20032;-62
2021/06/16 08:16:11;;;;;;;5.90;5.30;;;23.70;79.60;;;;;;5090149;27;20691;-61
2021/06/16 08:18:36;;;;;;;5.50;5.00;;;23.80;79.60;;;;;;5092520;28;20070;-60
2021/06/16 08:21:02;;;;;;;7.38;5.00;;;23.80;79.80;;;;;;5091029;28;20040;-60
2021/06/16 08:23:28;;;;;;;5.38;4.88;;;23.80;80.00;;;;;;5090534;28;20020;-60
2021/06/16 08:25:54;;;;;;;5.50;5.03;;;23.90;80.20;;;;;;5095315;28;20028;-61
2021/06/16 08:28:19;;;;;;;6.30;4.90;;;23.90;80.50;;;;;;5088324;28;20031;-60
2021/06/16 08:30:45;;;;;;;7.30;5.20;;;24.00;80.40;;;;;;5092788;28;20236;-61
2021/06/16 08:33:11;;;;;;;5.72;5.13;;;24.10;80.10;;;;;;5089630;28;20056;-61
2021/06/16 08:35:37;;;;;;;5.63;4.60;;;24.10;80.00;;;;;;5088238;28;20055;-59
2021/06/16 08:38:03;;;;;;;5.75;5.05;;;24.20;79.90;;;;;;5083915;28;20038;-62
2021/06/16 08:40:29;;;;;;;5.78;5.28;;;24.30;80.00;;;;;;5072603;28;20063;-61
2021/06/16 08:42:54;;;;;;;5.47;4.97;;;24.30;79.50;;;;;;5089124;28;20210;-60
2021/06/16 08:45:20;;;;;;;7.13;5.35;;;24.30;79.40;;;;;;5087413;28;20379;-62
2021/06/16 08:47:48;;;;;;;5.57;4.90;;;24.40;79.40;;;;;;5098237;28;20064;-61
2021/06/16 08:50:14;;;;;;;6.40;5.00;;;24.40;79.30;;;;;;5089880;28;20032;-62
2021/06/16 08:52:41;;;;;;;5.20;4.70;;;24.40;79.40;;;;;;5092493;28;20032;-61
2021/06/16 08:55:13;;;;;;;5.18;4.68;;;24.40;79.30;;;;;;5091590;28;20042;-60
2021/06/16 08:57:39;;;;;;;4.95;4.47;;;24.50;79.00;;;;;;5089097;28;20061;-61
2021/06/16 09:00:07;;;;;;;5.03;4.53;;;24.50;78.90;;;;;;5084358;28;20024;-61
2021/06/16 09:02:33;;;;;;;6.60;4.93;;;24.50;78.70;;;;;;5073047;28;20040;-60
2021/06/16 09:04:59;;;;;;;5.32;4.82;;;24.60;78.70;;;;;;5089693;28;20527;-60
2021/06/16 09:07:27;;;;;;;5.70;4.15;;;24.60;78.70;;;;;;5090235;28;20034;-61
2021/06/16 09:10:09;;;;;;;5.88;4.72;;;24.60;78.60;;;;;;5080189;28;20036;-61
2021/06/16 09:12:48;;;;;;;5.88;4.57;;;24.60;78.30;;;;;;5082978;28;20032;-60
2021/06/16 09:15:16;;;;;;;5.15;4.00;;;24.60;78.40;;;;;;5084199;28;20035;-60
2021/06/16 09:17:57;;;;;;;5.40;4.88;;;24.60;78.40;;;;;;5079230;28;20040;-60
2021/06/16 09:20:24;;;;;;;5.30;4.80;;;24.70;78.30;;;;;;5091602;28;20063;-60
2021/06/16 09:23:06;;;;;;;5.22;4.65;;;24.80;78.10;;;;;;5094477;28;20050;-60
2021/06/16 09:25:31;;;;;;;6.05;4.78;;;24.80;77.30;;;;;;5088636;28;22012;-60
2021/06/16 09:27:57;;;;;;;5.13;4.63;;;24.90;77.20;;;;;;5090511;28;20103;-60
2021/06/16 09:30:26;;;;;;;5.50;4.95;;;24.90;77.20;;;;;;5092812;28;20043;-60
2021/06/16 09:32:56;;;;;;;5.10;4.60;;;25.00;76.90;;;;;;5089538;28;20095;-60
2021/06/16 09:35:27;;;;;;;5.18;4.70;;;25.00;76.40;;;;;;5089610;28;20732;-61
2021/06/16 09:37:54;;;;;;;4.97;4.47;;;25.00;76.10;;;;;;5096059;28;20044;-60
2021/06/16 09:40:26;;;;;;;5.22;4.72;;;25.00;76.30;;;;;;5097707;28;20039;-60
2021/06/16 09:43:00;;;;;;;5.00;4.55;;;25.00;75.80;;;;;;5089633;28;20110;-60
2021/06/16 09:45:27;;;;;;;4.95;4.45;;;25.00;75.70;;;;;;5093227;28;20032;-59
2021/06/16 09:47:53;;;;;;;5.40;4.20;;;25.00;75.10;;;;;;5098267;28;20063;-60
2021/06/16 09:50:23;;;;;;;5.32;4.05;;;25.00;74.80;;;;;;5097047;28;20070;-61
2021/06/16 09:52:50;;;;;;;4.50;3.90;;;25.00;75.60;;;;;;5096720;28;20072;-58
2021/06/16 09:55:22;;;;;;;4.60;3.60;;;25.00;74.80;;;;;;5098896;28;20178;-59
2021/06/16 09:58:05;;;;;;;4.30;3.90;;;25.00;74.30;;;;;;5097518;28;20097;-60
2021/06/16 10:00:34;;;;;;;3.78;3.47;;;24.90;73.70;;;;;;5092471;28;20038;-60
2021/06/16 10:03:06;;;;;;;3.70;3.40;;;24.80;73.90;;;;;;5095314;28;20019;-61
2021/06/16 10:05:32;;;;;;;4.18;3.42;;;24.80;73.90;;;;;;5095922;28;20506;-60
2021/06/16 10:07:57;;;;;;;4.80;3.53;;;24.70;73.60;;;;;;5096427;28;20032;-60
2021/06/16 10:10:24;;;;;;;6.15;4.00;;;24.70;73.70;;;;;;5085014;28;20035;-60
2021/06/16 10:12:52;;;;;;;3.63;3.33;;;24.70;73.80;;;;;;5097405;28;20099;-61
2021/06/16 10:15:20;;;;;;;4.20;3.80;;;24.60;73.50;;;;;;5091139;28;20035;-60
2021/06/16 10:17:46;;;;;;;3.45;3.15;;;24.60;73.80;;;;;;5095450;27;20035;-59
2021/06/16 10:20:15;;;;;;;3.85;3.45;;;24.60;73.70;;;;;;5099540;28;20085;-59
2021/06/16 10:22:41;;;;;;;3.50;3.20;;;24.50;73.70;;;;;;5096175;27;20026;-60
2021/06/16 10:25:07;;;;;;;4.35;3.45;;;24.50;73.60;;;;;;5102636;28;20050;-60
2021/06/16 10:27:45;;;;;;;4.90;3.58;;;24.40;73.80;;;;;;5104399;28;20028;-59
2021/06/16 10:30:13;;;;;;;3.38;3.08;;;24.30;73.60;;;;;;5103178;28;20046;-59
2021/06/16 10:32:42;;;;;;;5.18;3.00;;;24.20;73.60;;;;;;5102198;28;20038;-59
2021/06/16 10:35:15;;;;;;;4.00;3.53;;;24.10;72.60;;;;;;5096482;28;20027;-60
2021/06/16 10:37:44;;;;;;;3.83;3.35;;;24.00;71.40;;;;;;5097557;28;20027;-60
2021/06/16 10:40:19;;;;;;;4.88;3.20;;;23.80;72.90;;;;;;5093249;28;20036;-60
2021/06/16 10:43:03;;;;;;;2.65;2.45;;;23.70;73.20;;;;;;5087282;28;20031;-60
2021/06/16 10:45:31;;;;;;;4.38;3.08;;;23.50;72.30;;;;;;5093169;28;20375;-60
2021/06/16 10:48:00;;;;;;;3.33;3.00;;;23.40;73.20;;;;;;5096410;28;20020;-60
2021/06/16 10:50:45;;;;;;;2.95;2.75;;;23.40;73.80;;;;;;5093978;28;20028;-61
2021/06/16 10:53:12;;;;;;;2.60;2.40;;;23.40;74.00;;;;;;5094199;28;20035;-60
2021/06/16 10:55:58;;;;;;;2.28;2.13;;;23.40;73.60;;;;;;5095559;28;20039;-60
2021/06/16 10:58:26;;;;;;;2.53;2.33;;;23.30;72.50;;;;;;5079282;28;20101;-60
2021/06/16 11:01:14;;;;;;;3.05;2.15;;;23.30;72.60;;;;;;5087387;28;20479;-59
2021/06/16 11:03:46;;;;;;;2.55;2.30;;;23.30;72.80;;;;;;5093711;28;20028;-61
2021/06/16 11:06:33;;;;;;;2.60;2.40;;;23.30;73.00;;;;;;5090967;28;20858;-61
2021/06/16 11:09:00;;;;;;;2.70;2.50;;;23.30;73.10;;;;;;5097540;28;20038;-61
2021/06/16 11:12:01;;;;;;;2.75;2.55;;;23.40;73.50;;;;;;5097170;28;20069;-60
2021/06/16 11:14:32;;;;;;;2.40;2.20;;;23.50;73.80;;;;;;5094486;28;20066;-59
2021/06/16 11:17:03;;;;;;;2.65;2.38;;;23.60;73.50;;;;;;5093609;28;20024;-58
2021/06/16 11:19:40;;;;;;;3.88;2.20;;;23.60;73.60;;;;;;5091781;28;20076;-62
2021/06/16 11:22:11;;;;;;;2.63;2.40;;;23.70;73.40;;;;;;5096773;28;20032;-61
2021/06/16 11:25:02;;;;;;;2.45;2.25;;;23.70;72.90;;;;;;5093536;28;20031;-61
2021/06/16 11:28:07;;;;;;;4.43;2.58;;;23.70;72.60;;;;;;5082432;28;20119;-61
2021/06/16 11:30:48;;;;;;;2.60;2.40;;;23.70;73.50;;;;;;5089386;28;20040;-58
2021/06/16 11:33:23;;;;;;;2.63;2.35;;;23.60;74.20;;;;;;5095251;28;20042;-60
2021/06/16 11:35:49;;;;;;;3.17;2.53;;;23.50;74.90;;;;;;5095266;28;20051;-60
2021/06/16 11:38:17;;;;;;;3.47;2.50;;;23.40;75.20;;;;;;5090085;28;20808;-57
2021/06/16 11:41:00;;;;;;;2.92;2.72;;;23.30;75.70;;;;;;5091470;28;20482;-58
2021/06/16 11:43:30;;;;;;;3.78;2.55;;;23.20;75.90;;;;;;5090452;28;20023;-59
2021/06/16 11:45:55;;;;;;;2.97;2.30;;;23.10;76.20;;;;;;5093702;28;20197;-58
2021/06/16 11:48:21;;;;;;;2.15;2.03;;;23.10;76.60;;;;;;5087064;28;20744;-59
2021/06/16 11:50:48;;;;;;;3.42;2.30;;;23.00;76.70;;;;;;5094714;28;20375;-57
2021/06/16 11:53:26;;;;;;;2.10;2.00;;;23.00;77.10;;;;;;5094642;28;20038;-58
2021/06/16 11:55:52;;;;;;;1.92;1.83;;;23.00;76.60;;;;;;5094844;28;20042;-56
2021/06/16 11:58:21;;;;;;;1.98;1.88;;;22.90;76.70;;;;;;5100114;28;20035;-57
2021/06/16 12:00:50;;;;;;;2.45;2.10;;;23.00;77.10;;;;;;5094418;28;20035;-59
2021/06/16 12:03:16;;;;;;;3.05;2.80;;;23.00;76.80;;;;;;5094761;28;20032;-57
2021/06/16 12:05:42;;;;;;;3.05;2.72;;;23.00;76.90;;;;;;5094480;28;20070;-57
2021/06/16 12:08:08;;;;;;;3.03;2.72;;;23.00;77.10;;;;;;5092967;28;20036;-59
2021/06/16 12:10:34;;;;;;;3.40;2.67;;;23.00;77.40;;;;;;5090395;28;20058;-59
2021/06/16 12:13:03;;;;;;;2.83;2.40;;;23.00;77.00;;;;;;5093656;28;20032;-61
2021/06/16 12:15:36;;;;;;;2.53;2.33;;;23.00;75.00;;;;;;5096587;28;20047;-60
2021/06/16 12:18:04;;;;;;;2.65;2.42;;;23.00;74.30;;;;;;5088739;28;20450;-59
2021/06/16 12:20:31;;;;;;;2.92;2.63;;;23.00;74.50;;;;;;5094376;28;20392;-58
2021/06/16 12:22:57;;;;;;;2.35;2.15;;;23.00;75.00;;;;;;5094565;28;21051;-60
2021/06/16 12:25:32;;;;;;;2.50;2.30;;;23.00;74.70;;;;;;5096357;28;20027;-60
2021/06/16 12:27:59;;;;;;;4.35;2.80;;;23.00;74.60;;;;;;5093557;28;20476;-60
2021/06/16 12:30:31;;;;;;;3.25;2.35;;;23.00;75.00;;;;;;5091753;28;20091;-59
2021/06/16 12:36:10;;;;;;;2.67;2.20;;;23.10;75.10;;;;;;5096258;28;20019;-59
2021/06/16 12:38:44;;;;;;;2.00;1.90;;;23.20;75.00;;;;;;5094855;27;20042;-57
2021/06/16 12:41:31;;;;;;;2.28;2.08;;;23.20;74.60;;;;;;5091829;28;20070;-59
2021/06/16 12:44:15;;;;;;;2.40;2.20;;;23.30;74.80;;;;;;5093827;28;20043;-59
2021/06/16 12:46:57;;;;;;;2.17;2.08;;;23.40;74.60;;;;;;5094748;28;20043;-57
2021/06/16 12:49:26;;;;;;;2.42;2.08;;;23.50;74.20;;;;;;5095543;28;20320;-58
2021/06/16 12:51:54;;;;;;;2.00;1.90;;;23.60;73.90;;;;;;5091123;28;20035;-57
2021/06/16 12:54:29;;;;;;;2.53;2.03;;;23.70;73.80;;;;;;5093735;28;20035;-58
2021/06/16 12:57:15;;;;;;;2.20;1.98;;;23.80;73.20;;;;;;5097176;28;20055;-57